Time;durP1;ratioP1;P1;durP2;ratioP2;P2;SDS_P1;SDS_P2;PMS_P1;PMS_P2;Temp;Humidity;BMP_temperature;BMP_pressure;BME280_temperature;BME280_humidity;BME280_pressure;Samples;Min_cycle;Max_cycle;Signal;HPM_P1;HPM_P2
2023/02/15 00:01:11;;;;;;;52.95;36.35;;;;;;;0.19;90.73;96994.81;5054871;28;20041;-68
2023/02/15 00:03:37;;;;;;;48.47;33.15;;;;;;;0.14;90.58;96992.38;5058786;28;20024;-68
2023/02/15 00:06:04;;;;;;;48.63;33.97;;;;;;;0.14;91.35;96994.97;5057282;28;20048;-69
2023/02/15 00:08:30;;;;;;;51.03;33.53;;;;;;;0.06;91.15;96999.50;5053941;28;20033;-68
2023/02/15 00:11:10;;;;;;;52.38;36.25;;;;;;;0.03;91.35;96991.81;5052063;28;20040;-69
2023/02/15 00:13:36;;;;;;;46.78;33.72;;;;;;;0.01;91.49;96994.47;5057509;28;20036;-69
2023/02/15 00:16:03;;;;;;;46.97;33.17;;;;;;;-0.06;91.06;96991.22;5058452;28;20167;-69
2023/02/15 00:18:29;;;;;;;45.60;31.08;;;;;;;-0.10;91.50;96992.19;5053086;28;20054;-76
2023/02/15 00:20:54;;;;;;;44.97;30.52;;;;;;;-0.11;91.00;96989.66;5055630;28;20024;-76
2023/02/15 00:23:19;;;;;;;42.63;29.10;;;;;;;-0.10;92.81;96996.50;5054242;28;20425;-76
2023/02/15 00:25:45;;;;;;;48.95;33.50;;;;;;;-0.11;92.97;96982.75;5054910;28;20375;-76
2023/02/15 00:28:10;;;;;;;36.67;27.67;;;;;;;-0.12;92.70;96986.19;5055628;28;20052;-76
2023/02/15 00:30:35;;;;;;;43.67;31.05;;;;;;;-0.15;91.82;96992.31;5056277;28;20476;-76
2023/02/15 00:33:01;;;;;;;40.85;29.90;;;;;;;-0.12;92.25;96981.00;5057874;28;20096;-76
2023/02/15 00:35:26;;;;;;;41.30;29.77;;;;;;;-0.16;92.96;96969.91;5073063;28;20076;-68
2023/02/15 00:37:52;;;;;;;40.85;29.95;;;;;;;-0.23;92.79;96977.91;5073131;28;20481;-64
2023/02/15 00:40:18;;;;;;;38.70;29.63;;;;;;;-0.27;93.37;96971.13;5073619;28;20082;-64
2023/02/15 00:42:43;;;;;;;38.35;29.88;;;;;;;-0.28;92.50;96969.44;5079400;28;20093;-64
2023/02/15 00:45:08;;;;;;;37.38;25.35;;;;;;;-0.28;92.43;96975.44;5071397;28;20115;-64
2023/02/15 00:47:34;;;;;;;36.25;26.55;;;;;;;-0.31;92.66;96971.22;5074295;28;20040;-65
2023/02/15 00:49:59;;;;;;;36.20;26.67;;;;;;;-0.34;92.74;96971.28;5078716;28;20050;-64
2023/02/15 00:52:24;;;;;;;34.65;25.73;;;;;;;-0.37;93.62;96973.13;5075591;28;20060;-64
2023/02/15 00:54:50;;;;;;;37.60;26.25;;;;;;;-0.42;93.49;96969.81;5073042;28;20395;-67
2023/02/15 00:57:15;;;;;;;33.22;25.15;;;;;;;-0.46;93.75;96966.47;5073774;28;20454;-65
2023/02/15 00:59:40;;;;;;;33.60;24.65;;;;;;;-0.46;93.21;96974.22;5057210;28;20020;-64
2023/02/15 01:02:06;;;;;;;31.00;23.40;;;;;;;-0.46;93.92;96956.94;5072040;28;20490;-65
2023/02/15 01:04:31;;;;;;;27.15;22.55;;;;;;;-0.48;93.05;96963.06;5073329;28;20024;-64
2023/02/15 01:06:56;;;;;;;26.58;20.83;;;;;;;-0.51;93.58;96969.16;5074343;28;20064;-64
2023/02/15 01:09:22;;;;;;;24.83;19.38;;;;;;;-0.52;93.17;96951.13;5075826;28;20041;-65
2023/02/15 01:11:47;;;;;;;23.33;17.77;;;;;;;-0.51;93.22;96958.81;5074747;28;20033;-67
2023/02/15 01:14:13;;;;;;;19.40;14.73;;;;;;;-0.44;93.03;96959.50;5075550;28;20028;-69
2023/02/15 01:16:38;;;;;;;20.27;15.52;;;;;;;-0.40;93.91;96957.69;5074815;28;20040;-76
2023/02/15 01:19:04;;;;;;;17.60;13.25;;;;;;;-0.44;93.90;96962.09;5075565;28;20028;-76
2023/02/15 01:21:30;;;;;;;14.55;11.77;;;;;;;-0.43;94.11;96958.59;5073206;28;20033;-75
2023/02/15 01:23:55;;;;;;;14.15;12.15;;;;;;;-0.46;93.87;96953.53;5074548;28;20499;-75
2023/02/15 01:26:21;;;;;;;15.65;13.02;;;;;;;-0.49;93.86;96963.97;5073715;28;20033;-76
2023/02/15 01:28:46;;;;;;;15.40;11.85;;;;;;;-0.54;93.71;96960.66;5074693;28;20662;-75
2023/02/15 01:31:15;;;;;;;15.23;12.13;;;;;;;-0.50;93.31;96959.69;5073541;28;20623;-62
2023/02/15 01:33:40;;;;;;;15.57;12.65;;;;;;;-0.54;93.17;96958.91;5077421;28;20081;-62
2023/02/15 01:36:06;;;;;;;14.90;11.32;;;;;;;-0.59;93.64;96955.59;5073168;28;20483;-62
2023/02/15 01:38:32;;;;;;;16.05;12.60;;;;;;;-0.64;93.65;96958.31;5077544;28;20154;-62
2023/02/15 01:43:43;;;;;;;17.05;13.18;;;;;;;-0.68;93.63;96945.50;5075848;28;20035;-62
2023/02/15 01:46:11;;;;;;;14.73;12.27;;;;;;;-0.67;92.87;96944.59;5075088;28;20032;-62
2023/02/15 01:48:47;;;;;;;21.48;14.45;;;;;;;-0.69;94.29;96943.78;5073260;28;20039;-62
2023/02/15 01:51:17;;;;;;;16.95;13.35;;;;;;;-0.74;94.06;96942.19;5071522;28;20047;-70
2023/02/15 01:53:49;;;;;;;16.38;11.82;;;;;;;-0.75;94.39;96944.84;5074496;28;20120;-68
2023/02/15 01:56:19;;;;;;;19.67;15.25;;;;;;;-0.80;94.76;96941.50;5075704;28;20086;-68
2023/02/15 01:58:46;;;;;;;40.88;23.67;;;;;;;-0.82;95.75;96938.09;5074776;28;20487;-68
2023/02/15 02:01:12;;;;;;;36.67;21.92;;;;;;;-0.84;94.59;96933.00;5075174;28;20024;-68
2023/02/15 02:03:58;;;;;;;27.77;19.13;;;;;;;-0.83;94.78;96939.00;5073303;28;20025;-68
2023/02/15 02:06:26;;;;;;;23.10;15.68;;;;;;;-0.84;94.34;96943.34;5072966;28;20024;-68
2023/02/15 02:08:53;;;;;;;23.95;15.30;;;;;;;-0.87;94.20;96941.66;5075099;28;20118;-68
2023/02/15 02:11:18;;;;;;;25.27;15.27;;;;;;;-0.85;95.02;96938.19;5073614;28;20498;-69
2023/02/15 02:13:45;;;;;;;19.17;13.70;;;;;;;-0.89;95.00;96933.09;5068504;28;20041;-76
2023/02/15 02:16:19;;;;;;;35.40;19.38;;;;;;;-0.91;95.39;96934.88;5075610;28;20070;-76
2023/02/15 02:18:52;;;;;;;26.10;16.58;;;;;;;-0.94;95.07;96937.56;5075471;28;20032;-75
2023/02/15 02:21:26;;;;;;;24.48;15.65;;;;;;;-0.94;94.28;96941.88;5075901;28;20090;-76
2023/02/15 02:24:14;;;;;;;36.40;21.15;;;;;;;-0.84;94.34;96938.16;5077661;28;20028;-76
2023/02/15 02:26:58;;;;;;;32.75;18.73;;;;;;;-0.86;94.29;96934.78;5075210;28;20041;-76
2023/02/15 02:29:52;;;;;;;33.45;19.05;;;;;;;-0.91;95.07;96934.88;5061390;28;20029;-65
2023/02/15 02:32:48;;;;;;;25.65;16.70;;;;;;;-0.95;95.98;96940.16;5078860;28;20723;-62
2023/02/15 02:35:16;;;;;;;21.13;14.13;;;;;;;-0.92;94.57;96940.94;5078018;28;20049;-62
2023/02/15 02:38:08;;;;;;;19.90;14.75;;;;;;;-0.88;96.13;96939.16;5077730;28;20410;-62
2023/02/15 02:40:55;;;;;;;22.15;13.73;;;;;;;-0.85;96.08;96952.00;5077266;28;20039;-61
2023/02/15 02:43:25;;;;;;;23.83;14.63;;;;;;;-0.83;95.89;96947.63;5077417;28;20039;-62
2023/02/15 02:46:00;;;;;;;20.77;14.27;;;;;;;-0.88;96.11;96939.97;5077941;28;20050;-62
2023/02/15 02:48:30;;;;;;;26.30;16.10;;;;;;;-0.92;96.34;96943.53;5074805;28;20044;-75
2023/02/15 02:50:55;;;;;;;40.50;22.25;;;;;;;-0.94;96.89;96947.91;5076634;28;20020;-71
2023/02/15 02:53:20;;;;;;;32.35;20.20;;;;;;;-0.94;96.01;96947.03;5077164;28;20032;-61
2023/02/15 02:55:49;;;;;;;43.13;24.08;;;;;;;-0.90;96.09;96951.22;5076900;28;20094;-61
2023/02/15 02:58:20;;;;;;;38.90;23.70;;;;;;;-0.92;96.40;96953.00;5077211;28;20036;-62
2023/02/15 03:00:50;;;;;;;43.38;21.52;;;;;;;-0.89;95.76;96958.97;5077139;28;20464;-62
2023/02/15 03:03:19;;;;;;;32.70;18.90;;;;;;;-0.91;95.78;96954.72;5076736;28;20029;-61
2023/02/15 03:05:47;;;;;;;31.90;18.85;;;;;;;-0.92;96.08;96947.84;5080284;28;20039;-61
2023/02/15 03:08:21;;;;;;;28.17;18.30;;;;;;;-0.96;96.23;96952.28;5078765;28;20040;-66
2023/02/15 03:10:48;;;;;;;31.23;17.58;;;;;;;-0.98;96.63;96950.59;5072301;28;20040;-61
2023/02/15 03:13:15;;;;;;;32.15;16.35;;;;;;;-0.95;96.71;96958.28;5045660;28;20105;-77
2023/02/15 03:18:42;;;;;;;28.60;14.40;;;;;;;-0.94;96.09;96947.91;5031308;28;20123;-77
2023/02/15 03:21:21;;;;;;;25.40;14.80;;;;;;;-0.94;95.62;96944.44;5077012;28;20409;-77
2023/02/15 03:23:52;;;;;;;19.92;13.40;;;;;;;-0.96;95.88;96948.81;5071476;28;20703;-77
2023/02/15 03:26:18;;;;;;;22.02;14.15;;;;;;;-1.05;96.61;96947.31;5070307;28;20036;-68
2023/02/15 03:28:47;;;;;;;22.02;14.07;;;;;;;-1.11;96.24;96955.25;5075177;28;20025;-67
2023/02/15 03:31:16;;;;;;;20.25;12.93;;;;;;;-1.10;96.07;96949.19;5076907;28;20118;-68
2023/02/15 03:33:59;;;;;;;20.13;12.40;;;;;;;-1.10;95.78;96952.63;5058751;28;20034;-68
2023/02/15 03:36:39;;;;;;;24.08;13.23;;;;;;;-1.08;95.50;96947.41;5076799;28;20040;-68
2023/02/15 03:39:24;;;;;;;18.65;13.20;;;;;;;-1.09;95.32;96940.53;5057004;28;20476;-68
2023/02/15 03:42:00;;;;;;;19.10;12.40;;;;;;;-1.22;96.27;96952.94;5072802;28;20119;-68
2023/02/15 03:44:31;;;;;;;17.17;12.13;;;;;;;-1.28;96.41;96948.75;5075047;28;21416;-69
2023/02/15 03:47:08;;;;;;;19.30;11.90;;;;;;;-1.32;96.60;96941.97;5074722;28;20041;-60
2023/02/15 03:49:44;;;;;;;16.75;11.82;;;;;;;-1.28;96.10;96945.34;5072604;28;20040;-64
2023/02/15 03:52:13;;;;;;;16.58;11.27;;;;;;;-1.33;96.89;96942.84;5073885;28;20028;-64
2023/02/15 03:54:42;;;;;;;19.10;12.90;;;;;;;-1.33;96.83;96946.31;5076016;28;20093;-64
2023/02/15 04:02:55;;;;;;;16.08;11.05;;;;;;;-1.28;97.01;96950.50;5076351;28;20136;-64
2023/02/15 04:05:20;;;;;;;14.75;11.13;;;;;;;-1.32;96.69;96957.47;5077405;28;20032;-60
2023/02/15 04:07:45;;;;;;;15.80;9.63;;;;;;;-1.34;97.24;96952.31;5074581;28;20082;-68
2023/02/15 04:12:56;;;;;;;19.00;11.45;;;;;;;-1.38;96.84;96953.28;5078319;28;20112;-64
2023/02/15 04:18:05;;;;;;;14.70;10.60;;;;;;;-1.52;97.61;96958.78;5074246;28;20413;-64
2023/02/15 04:25:58;;;;;;;24.83;15.23;;;;;;;-1.51;96.74;96950.16;5075712;28;20031;-65
2023/02/15 04:28:24;;;;;;;21.90;14.30;;;;;;;-1.50;97.88;96957.03;5053060;28;20033;-68
2023/02/15 04:30:49;;;;;;;22.08;13.82;;;;;;;-1.50;98.43;96964.78;5074383;28;20403;-68
2023/02/15 04:33:15;;;;;;;19.80;13.13;;;;;;;-1.54;98.09;96959.75;5075955;28;20033;-68
2023/02/15 04:35:40;;;;;;;24.00;15.77;;;;;;;-1.55;98.24;96952.84;5057278;28;20049;-69
2023/02/15 04:38:05;;;;;;;17.30;10.60;;;;;;;-1.52;97.06;96957.97;5078280;28;20043;-69
2023/02/15 04:40:31;;;;;;;14.75;10.93;;;;;;;-1.49;98.17;96958.72;5074841;28;20038;-69
2023/02/15 04:42:56;;;;;;;20.00;14.38;;;;;;;-1.48;99.60;96949.25;5073357;28;20043;-69
2023/02/15 04:45:21;;;;;;;19.88;14.30;;;;;;;-1.53;98.71;96951.94;5073258;28;20123;-68
2023/02/15 04:47:47;;;;;;;20.08;13.43;;;;;;;-1.54;98.48;96957.16;5070911;28;20403;-65
2023/02/15 04:50:12;;;;;;;17.13;12.70;;;;;;;-1.54;98.36;96959.75;5074753;28;20041;-66
2023/02/15 04:52:38;;;;;;;24.90;16.83;;;;;;;-1.56;98.83;96962.34;5070037;28;20059;-65
2023/02/15 04:55:03;;;;;;;22.70;17.13;;;;;;;-1.61;99.15;96967.59;5070926;28;20063;-65
2023/02/15 04:57:29;;;;;;;24.55;17.23;;;;;;;-1.61;99.62;96961.59;5069749;28;20029;-65
2023/02/15 04:59:54;;;;;;;23.33;16.00;;;;;;;-1.61;99.40;96961.59;5072241;28;20413;-66
2023/02/15 05:02:20;;;;;;;25.83;16.48;;;;;;;-1.59;100.00;96965.00;5068669;28;20052;-65
2023/02/15 05:04:45;;;;;;;26.02;17.40;;;;;;;-1.60;100.00;96956.41;5058747;28;20635;-66
2023/02/15 05:07:10;;;;;;;21.98;16.27;;;;;;;-1.61;100.00;96964.19;5073194;28;20474;-66
2023/02/15 05:09:36;;;;;;;20.77;15.00;;;;;;;-1.62;99.40;96962.50;5074690;28;20036;-65
2023/02/15 05:12:01;;;;;;;27.05;18.27;;;;;;;-1.67;99.99;96956.56;5076230;28;20422;-66
2023/02/15 05:14:27;;;;;;;25.63;18.08;;;;;;;-1.72;99.44;96961.84;5072981;28;20036;-66
2023/02/15 05:16:53;;;;;;;24.63;18.02;;;;;;;-1.74;99.58;96958.47;5074748;28;20059;-66
2023/02/15 05:19:19;;;;;;;28.40;21.08;;;;;;;-1.74;98.77;96959.31;5076755;28;20072;-66
2023/02/15 05:21:44;;;;;;;43.25;25.85;;;;;;;-1.73;98.57;96965.31;5072497;28;20072;-66
2023/02/15 05:29:38;;;;;;;28.42;18.55;;;;;;;-1.79;99.60;96955.97;5074240;28;20477;-68
2023/02/15 05:32:04;;;;;;;27.63;19.25;;;;;;;-1.75;99.38;96960.19;5074379;28;20029;-69
2023/02/15 05:34:29;;;;;;;26.77;18.40;;;;;;;-1.75;99.46;96957.59;5073633;28;20040;-69
2023/02/15 05:36:55;;;;;;;26.95;17.35;;;;;;;-1.80;99.66;96954.28;5076409;28;20032;-68
2023/02/15 05:39:20;;;;;;;26.67;17.63;;;;;;;-1.81;99.08;96952.59;5075385;28;20067;-68
2023/02/15 05:41:45;;;;;;;34.65;20.67;;;;;;;-1.82;98.45;96953.47;5073170;28;20032;-62
2023/02/15 05:44:10;;;;;;;29.88;19.75;;;;;;;-1.85;99.18;96948.38;5073623;28;20098;-67
2023/02/15 05:46:36;;;;;;;29.38;19.08;;;;;;;-1.91;99.55;96954.53;5076973;28;20036;-60
2023/02/15 05:49:01;;;;;;;32.15;20.65;;;;;;;-1.93;99.53;96953.72;5074034;28;20036;-61
2023/02/15 05:51:26;;;;;;;28.75;17.88;;;;;;;-1.95;99.63;96952.91;5075409;28;20051;-61
2023/02/15 05:53:52;;;;;;;35.85;23.20;;;;;;;-1.96;100.00;96952.91;5077829;28;20071;-61
2023/02/15 05:56:17;;;;;;;22.65;16.00;;;;;;;-1.96;99.67;96952.91;5078663;28;20039;-61
2023/02/15 05:58:43;;;;;;;39.75;23.33;;;;;;;-1.94;100.00;96951.16;5079051;28;20039;-61
2023/02/15 06:01:15;;;;;;;30.92;19.58;;;;;;;-1.96;100.00;96960.66;5075697;28;20527;-67
2023/02/15 06:03:40;;;;;;;37.38;23.48;;;;;;;-1.98;100.00;96960.72;5079492;28;20052;-76
2023/02/15 06:06:07;;;;;;;32.90;19.67;;;;;;;-2.02;100.00;96957.34;5078422;28;20060;-76
2023/02/15 06:08:34;;;;;;;36.97;23.33;;;;;;;-2.05;99.97;96949.66;5077674;28;20036;-76
2023/02/15 06:10:59;;;;;;;32.83;20.65;;;;;;;-2.07;100.00;96954.03;5077164;28;20024;-75
2023/02/15 06:13:25;;;;;;;23.33;14.77;;;;;;;-2.06;100.00;96953.13;5071526;28;20037;-76
2023/02/15 06:15:50;;;;;;;20.73;15.45;;;;;;;-2.10;100.00;96956.66;5066121;28;20067;-76
2023/02/15 06:18:15;;;;;;;16.42;12.82;;;;;;;-2.11;100.00;96960.09;5072165;28;20043;-76
2023/02/15 06:20:40;;;;;;;22.42;13.20;;;;;;;-2.10;100.00;96961.84;5072390;28;20568;-67
2023/02/15 06:23:06;;;;;;;51.58;27.05;;;;;;;-2.07;100.00;96960.91;5067766;28;20591;-62
2023/02/15 06:25:31;;;;;;;21.45;15.35;;;;;;;-2.09;100.00;96960.94;5070255;28;20546;-65
2023/02/15 06:27:56;;;;;;;22.60;17.33;;;;;;;-2.10;100.00;96958.38;5071019;28;20570;-66
2023/02/15 06:30:22;;;;;;;22.08;17.80;;;;;;;-2.12;100.00;96957.56;5072217;28;20060;-66
2023/02/15 06:32:47;;;;;;;23.40;14.02;;;;;;;-2.05;100.00;96965.16;5071427;28;20064;-66
2023/02/15 06:35:13;;;;;;;18.55;13.30;;;;;;;-2.02;100.00;96959.94;5053880;28;20040;-66
2023/02/15 06:37:38;;;;;;;20.40;12.50;;;;;;;-2.00;100.00;96967.63;5071656;28;20051;-66
2023/02/15 06:40:04;;;;;;;28.40;18.42;;;;;;;-1.95;100.00;96967.53;5072211;28;20502;-68
2023/02/15 06:42:30;;;;;;;27.10;18.15;;;;;;;-1.93;100.00;96971.78;5069742;28;20636;-64
2023/02/15 06:44:55;;;;;;;32.47;20.88;;;;;;;-1.95;100.00;96970.97;5070662;28;20079;-70
2023/02/15 06:47:20;;;;;;;30.98;20.48;;;;;;;-1.98;100.00;96970.19;5070806;28;20025;-69
2023/02/15 06:49:46;;;;;;;27.58;17.88;;;;;;;-2.00;100.00;96974.53;5071893;28;20040;-70
2023/02/15 06:52:11;;;;;;;25.73;18.40;;;;;;;-2.05;100.00;96978.06;5069834;28;20033;-69
2023/02/15 06:54:36;;;;;;;32.88;21.17;;;;;;;-2.06;100.00;96976.38;5071140;28;20028;-69
2023/02/15 06:57:02;;;;;;;28.58;20.63;;;;;;;-2.10;100.00;96977.31;5071883;28;20028;-70
2023/02/15 06:59:27;;;;;;;37.78;24.95;;;;;;;-2.10;100.00;96977.31;5071331;28;20032;-64
2023/02/15 07:01:52;;;;;;;34.40;20.75;;;;;;;-2.07;100.00;96981.53;5063087;28;20036;-66
2023/02/15 07:04:18;;;;;;;23.25;19.80;;;;;;;-2.07;100.00;96977.25;5068142;28;20110;-66
2023/02/15 07:06:43;;;;;;;27.55;20.70;;;;;;;-2.07;100.00;96982.41;5071754;28;20036;-66
2023/02/15 07:09:09;;;;;;;28.67;21.60;;;;;;;-2.08;100.00;96979.84;5070866;28;20033;-67
2023/02/15 07:14:18;;;;;;;24.27;19.33;;;;;;;-2.00;100.00;96980.53;5067686;28;20587;-66
2023/02/15 07:16:44;;;;;;;27.05;20.20;;;;;;;-1.94;100.00;96979.53;5067264;28;20051;-66
2023/02/15 07:19:09;;;;;;;28.73;21.80;;;;;;;-1.89;100.00;96981.16;5069395;28;20103;-68
2023/02/15 07:21:35;;;;;;;29.17;23.02;;;;;;;-1.83;100.00;96980.19;5068001;28;20116;-68
2023/02/15 07:24:01;;;;;;;22.50;17.55;;;;;;;-1.58;100.00;96979.63;5070799;28;20115;-66
2023/02/15 07:26:27;;;;;;;17.02;15.20;;;;;;;-1.55;100.00;96982.13;5050353;28;20523;-66
2023/02/15 07:28:52;;;;;;;22.17;17.63;;;;;;;-1.53;100.00;96982.94;5058916;28;20591;-67
2023/02/15 07:31:18;;;;;;;25.30;19.95;;;;;;;-1.61;100.00;96990.03;5070677;28;20035;-68
2023/02/15 07:33:43;;;;;;;37.25;24.63;;;;;;;-1.64;100.00;96982.34;5069130;28;20094;-68
2023/02/15 07:36:12;;;;;;;50.72;31.17;;;;;;;-1.61;100.00;96982.28;5069553;28;20474;-66
2023/02/15 07:38:39;;;;;;;33.50;27.30;;;;;;;-1.57;100.00;96981.31;5065002;28;20548;-66
2023/02/15 07:41:08;;;;;;;39.17;30.33;;;;;;;-1.58;100.00;96969.28;5060554;28;20494;-76
2023/02/15 07:43:35;;;;;;;38.03;31.02;;;;;;;-1.58;100.00;96970.13;5070744;28;20119;-67
2023/02/15 07:46:03;;;;;;;38.78;32.47;;;;;;;-1.56;100.00;96970.09;5064336;28;20499;-65
2023/02/15 07:48:28;;;;;;;42.08;34.65;;;;;;;-1.56;100.00;96974.41;5066528;28;20119;-66
2023/02/15 07:50:54;;;;;;;38.47;33.67;;;;;;;-1.60;100.00;96979.63;5063033;28;20121;-67
2023/02/15 07:53:19;;;;;;;43.28;34.22;;;;;;;-1.60;100.00;96981.38;5064434;28;20029;-66
2023/02/15 07:55:44;;;;;;;43.55;36.75;;;;;;;-1.60;100.00;96982.22;5064597;28;20091;-66
2023/02/15 07:58:10;;;;;;;48.83;37.92;;;;;;;-1.57;100.00;96976.16;5069828;28;20025;-66
2023/02/15 08:00:56;;;;;;;46.72;39.60;;;;;;;-1.51;100.00;96970.00;5071363;28;20036;-69
2023/02/15 08:03:26;;;;;;;41.55;35.75;;;;;;;-1.45;100.00;96978.41;5062394;28;20025;-68
2023/02/15 08:05:57;;;;;;;39.70;34.15;;;;;;;-1.41;100.00;96978.38;5070133;28;20117;-68
2023/02/15 08:08:31;;;;;;;38.47;31.83;;;;;;;-1.43;100.00;96964.66;5069762;28;20041;-68
2023/02/15 08:13:55;;;;;;;29.63;26.27;;;;;;;-1.43;100.00;96972.41;5064065;28;20043;-68
2023/02/15 08:16:24;;;;;;;;;;;;;;;-1.40;100.00;96970.56;5070311;28;20067;-68
2023/02/15 08:18:50;;;;;;;31.63;28.23;;;;;;;-1.40;100.00;96962.00;5066820;28;19944;-68
2023/02/15 08:21:16;;;;;;;31.52;27.38;;;;;;;-1.40;100.00;96964.56;5066754;28;20111;-68
2023/02/15 08:23:41;;;;;;;34.97;26.23;;;;;;;-1.36;100.00;96963.59;5069475;28;20217;-68
2023/02/15 08:26:07;;;;;;;31.02;25.30;;;;;;;-1.31;100.00;96961.75;5059694;28;20040;-68
2023/02/15 08:28:32;;;;;;;28.17;25.27;;;;;;;-1.21;100.00;96959.78;5054959;28;20027;-68
2023/02/15 08:31:11;;;;;;;29.90;26.15;;;;;;;-1.16;100.00;96961.38;5068534;28;20064;-68
2023/02/15 08:33:38;;;;;;;31.20;25.23;;;;;;;-1.10;100.00;96959.53;5048461;28;20029;-68
2023/02/15 08:36:05;;;;;;;26.40;23.58;;;;;;;-1.10;100.00;96955.22;5065654;28;20036;-70
2023/02/15 08:38:31;;;;;;;24.85;22.13;;;;;;;-0.88;100.00;96952.91;5069006;28;20027;-62
2023/02/15 08:40:57;;;;;;;25.40;22.70;;;;;;;-0.25;100.00;96951.22;5069476;28;20048;-71
2023/02/15 08:43:22;;;;;;;26.83;22.50;;;;;;;0.34;98.86;96944.28;5069506;28;20033;-70
2023/02/15 08:45:47;;;;;;;22.80;20.08;;;;;;;0.88;97.17;96937.34;5069086;28;20585;-70
2023/02/15 08:48:13;;;;;;;22.27;19.90;;;;;;;1.42;94.53;96945.03;5059217;28;20119;-70
2023/02/15 08:50:38;;;;;;;39.83;29.52;;;;;;;1.82;91.35;96943.56;5048839;28;20052;-70
2023/02/15 08:53:03;;;;;;;38.53;22.35;;;;;;;2.21;89.16;96942.13;5068947;28;20063;-69
2023/02/15 08:55:29;;;;;;;32.42;21.27;;;;;;;2.67;87.01;96938.59;5069822;28;20043;-63
2023/02/15 08:57:55;;;;;;;38.10;26.48;;;;;;;3.03;85.13;96934.53;5055859;28;20044;-68
2023/02/15 09:00:24;;;;;;;32.20;19.30;;;;;;;3.37;83.96;96933.94;5069332;28;20438;-68
2023/02/15 09:02:50;;;;;;;22.33;16.75;;;;;;;3.79;82.80;96928.63;5059707;28;20136;-67
2023/02/15 09:05:15;;;;;;;41.50;20.42;;;;;;;4.03;80.45;96931.03;5069553;28;20112;-67
2023/02/15 09:07:41;;;;;;;19.05;9.88;;;;;;;4.23;76.63;96933.56;5068995;28;20036;-67
2023/02/15 09:10:06;;;;;;;9.43;7.43;;;;;;;4.52;77.33;96936.53;5069260;28;20033;-68
2023/02/15 09:12:32;;;;;;;6.15;4.68;;;;;;;4.73;73.61;96926.84;5068273;28;20043;-68
2023/02/15 09:14:57;;;;;;;7.65;4.75;;;;;;;4.88;71.89;96934.84;5068771;28;20127;-68
2023/02/15 09:17:22;;;;;;;5.22;4.45;;;;;;;5.15;71.41;96931.75;5069070;28;20402;-68
2023/02/15 09:19:48;;;;;;;9.43;4.40;;;;;;;5.35;68.76;96924.69;5069523;28;20067;-68
2023/02/15 09:22:13;;;;;;;4.28;3.85;;;;;;;5.58;68.48;96926.06;5069346;28;20055;-68
2023/02/15 09:24:38;;;;;;;4.20;3.72;;;;;;;5.85;64.16;96920.31;5069332;28;20490;-68
2023/02/15 09:27:04;;;;;;;7.07;4.90;;;;;;;6.02;62.89;96922.88;5070277;28;20037;-68
2023/02/15 09:29:29;;;;;;;6.32;5.30;;;;;;;6.10;63.92;96924.25;5072498;28;20036;-68
2023/02/15 09:31:54;;;;;;;5.47;4.13;;;;;;;6.22;62.77;96928.81;5062863;28;20032;-68
2023/02/15 09:34:22;;;;;;;4.47;4.05;;;;;;;6.39;62.82;96919.19;5069815;28;20059;-62
2023/02/15 09:36:49;;;;;;;7.85;4.90;;;;;;;6.67;62.02;96922.84;5062863;28;20414;-62
2023/02/15 09:39:17;;;;;;;6.00;5.43;;;;;;;6.81;62.02;96908.97;5072485;28;20032;-67
2023/02/15 09:42:16;;;;;;;5.63;5.03;;;;;;;7.16;61.43;96908.69;5072877;28;20028;-67
2023/02/15 09:45:06;;;;;;;6.13;5.43;;;;;;;7.60;59.41;96909.56;5071608;28;20509;-67
2023/02/15 09:47:53;;;;;;;5.22;4.53;;;;;;;7.92;56.36;96908.53;5071837;28;20045;-67
2023/02/15 09:50:35;;;;;;;5.07;3.58;;;;;;;8.23;55.47;96901.38;5064813;28;20040;-67
2023/02/15 09:53:09;;;;;;;3.75;3.45;;;;;;;8.59;54.32;96906.06;5073994;28;20029;-62
2023/02/15 09:56:05;;;;;;;6.63;4.43;;;;;;;8.97;52.01;96909.72;5072615;28;20036;-67
2023/02/15 09:58:37;;;;;;;4.55;4.15;;;;;;;8.96;51.85;96904.59;5062627;28;20044;-63
2023/02/15 10:01:20;;;;;;;7.03;4.88;;;;;;;9.21;52.06;96906.41;5072349;28;20039;-63
2023/02/15 10:03:56;;;;;;;7.28;4.15;;;;;;;9.34;49.81;96908.22;5066138;28;20029;-63
2023/02/15 10:06:44;;;;;;;4.32;3.92;;;;;;;9.23;49.06;96904.50;5060811;28;20434;-63
2023/02/15 10:09:33;;;;;;;4.65;4.25;;;;;;;8.89;50.73;96904.16;5071972;28;20051;-63
2023/02/15 10:12:07;;;;;;;9.70;5.88;;;;;;;9.41;48.36;96901.56;5054090;28;20548;-69
2023/02/15 10:14:51;;;;;;;11.43;6.68;;;;;;;9.12;49.05;96902.59;5072514;28;20058;-64
2023/02/15 10:17:34;;;;;;;7.07;5.00;;;;;;;9.11;49.76;96898.28;5072111;28;20040;-63
2023/02/15 10:20:14;;;;;;;6.07;4.68;;;;;;;9.37;50.65;96900.94;5071722;28;20035;-63
2023/02/15 10:23:09;;;;;;;6.18;5.10;;;;;;;9.66;48.62;96895.47;5061189;28;20031;-63
2023/02/15 10:25:40;;;;;;;11.52;4.68;;;;;;;9.81;48.42;96897.97;5049656;28;20514;-63
2023/02/15 10:28:14;;;;;;;5.47;4.97;;;;;;;9.97;46.77;96900.38;5058838;28;20033;-63
2023/02/15 10:30:57;;;;;;;5.53;4.72;;;;;;;10.02;45.86;96891.19;5072153;28;20033;-64
2023/02/15 10:33:40;;;;;;;6.22;4.43;;;;;;;10.06;46.30;96896.22;5071612;28;20036;-63
2023/02/15 10:36:07;;;;;;;4.53;3.75;;;;;;;10.26;45.36;96881.66;5071428;28;20171;-76
2023/02/15 10:39:01;;;;;;;4.97;3.90;;;;;;;10.65;46.26;96885.00;5071868;28;20036;-76
2023/02/15 10:41:34;;;;;;;5.88;3.38;;;;;;;11.16;44.93;96883.88;5060476;28;20052;-76
2023/02/15 10:44:29;;;;;;;4.60;4.20;;;;;;;11.40;42.65;96882.94;5071148;28;20033;-77
2023/02/15 10:47:04;;;;;;;6.65;3.42;;;;;;;11.69;41.67;96873.72;5072251;28;20032;-76
2023/02/15 10:49:38;;;;;;;4.60;3.65;;;;;;;11.78;41.32;96877.44;5059828;28;20025;-76
2023/02/15 10:52:23;;;;;;;4.57;3.30;;;;;;;11.97;41.35;96874.19;5071638;28;20043;-68
2023/02/15 10:54:57;;;;;;;5.68;3.45;;;;;;;12.12;38.13;96862.44;5071242;28;20106;-69
2023/02/15 10:58:02;;;;;;;3.55;3.22;;;;;;;11.96;38.49;96860.16;5071404;28;20418;-68
2023/02/15 11:00:59;;;;;;;3.22;3.03;;;;;;;12.10;39.71;96859.09;5063316;28;20517;-69
2023/02/15 11:03:39;;;;;;;3.30;3.00;;;;;;;11.72;40.15;96855.03;5071634;28;20028;-68
2023/02/15 11:06:10;;;;;;;3.20;2.90;;;;;;;12.23;39.11;96851.00;5065218;28;20032;-68
2023/02/15 11:08:43;;;;;;;4.57;3.60;;;;;;;11.98;39.61;96845.03;5068845;28;20032;-68
2023/02/15 11:11:32;;;;;;;3.35;3.08;;;;;;;12.30;38.70;96836.38;5068552;28;20464;-70
2023/02/15 11:14:05;;;;;;;2.85;2.65;;;;;;;12.48;36.87;96840.28;5069445;28;20033;-67
2023/02/15 11:16:36;;;;;;;6.07;3.50;;;;;;;12.10;37.88;96839.78;5071187;28;20032;-67
2023/02/15 11:19:26;;;;;;;3.05;2.50;;;;;;;12.18;35.65;96827.66;5069202;28;20033;-67
2023/02/15 11:21:57;;;;;;;3.92;3.53;;;;;;;12.01;35.87;96831.63;5069871;28;20100;-67
2023/02/15 11:24:27;;;;;;;3.65;3.30;;;;;;;12.34;36.69;96823.75;5042160;28;20024;-66
2023/02/15 11:27:05;;;;;;;3.33;3.03;;;;;;;12.27;37.24;96823.41;5070945;28;20037;-66
2023/02/15 11:30:12;;;;;;;5.78;3.40;;;;;;;12.71;36.84;96814.56;5070069;28;20048;-66
2023/02/15 11:32:47;;;;;;;3.28;2.97;;;;;;;13.03;35.34;96813.69;5065003;28;20391;-66
2023/02/15 11:35:12;;;;;;;5.68;3.83;;;;;;;12.72;36.58;96814.47;5053541;28;20339;-67
2023/02/15 11:37:40;;;;;;;6.35;4.10;;;;;;;13.12;35.47;96812.91;5054726;28;20612;-66
2023/02/15 11:40:24;;;;;;;4.38;3.58;;;;;;;13.03;35.06;96811.88;5060598;28;20032;-67
2023/02/15 11:42:54;;;;;;;14.90;4.53;;;;;;;12.63;36.01;96806.47;5070126;28;20031;-67
2023/02/15 11:45:22;;;;;;;5.65;4.35;;;;;;;12.50;36.94;96804.00;5070531;28;20017;-67
2023/02/15 11:47:48;;;;;;;4.97;3.90;;;;;;;13.06;35.82;96799.41;5065147;28;20033;-67
2023/02/15 11:50:22;;;;;;;6.70;4.88;;;;;;;12.97;35.75;96801.81;5063595;28;20039;-62
2023/02/15 11:52:50;;;;;;;4.03;3.63;;;;;;;13.23;35.95;96805.88;5066463;28;20108;-68
2023/02/15 11:55:21;;;;;;;4.65;4.18;;;;;;;13.21;36.48;96799.88;5070427;28;20487;-69
2023/02/15 11:57:55;;;;;;;4.32;3.80;;;;;;;12.96;36.58;96796.69;5057145;28;20519;-69
2023/02/15 12:00:35;;;;;;;7.00;3.85;;;;;;;13.44;35.33;96801.41;5070343;28;20032;-69
2023/02/15 12:03:28;;;;;;;5.70;4.53;;;;;;;13.25;35.51;96793.38;5067141;28;20840;-69
2023/02/15 12:06:04;;;;;;;8.02;4.35;;;;;;;13.29;35.10;96787.69;5056835;28;20032;-69
2023/02/15 12:08:42;;;;;;;4.00;3.70;;;;;;;13.45;34.88;96786.38;5070583;28;20103;-66